createdAt,value
2018-03-22T00:00:53.092Z,68.20
2018-03-22T00:03:21.583Z,68.00
2018-03-22T00:05:48.571Z,67.70
2018-03-22T00:08:14.856Z,67.70
2018-03-22T00:10:43.010Z,67.50
2018-03-22T00:13:12.547Z,67.60
2018-03-22T00:15:39.894Z,68.10
2018-03-22T00:18:07.659Z,68.60
2018-03-22T00:20:35.550Z,69.10
2018-03-22T00:23:02.746Z,68.90
2018-03-22T00:25:29.024Z,69.20
2018-03-22T00:27:55.335Z,68.80
2018-03-22T00:30:21.587Z,68.90
2018-03-22T00:32:48.309Z,68.70
2018-03-22T00:35:14.741Z,68.80
2018-03-22T00:37:41.881Z,68.90
2018-03-22T00:40:08.503Z,68.90
2018-03-22T00:42:36.172Z,68.40
2018-03-22T00:45:03.667Z,68.70
2018-03-22T00:47:30.318Z,68.70
2018-03-22T00:49:56.659Z,68.70
2018-03-22T00:52:23.008Z,68.90
2018-03-22T00:54:49.291Z,68.60
2018-03-22T00:57:16.079Z,69.00
2018-03-22T00:59:42.355Z,69.10
2018-03-22T01:02:08.627Z,69.60
2018-03-22T01:04:34.902Z,69.80
2018-03-22T01:07:01.139Z,69.60
2018-03-22T01:09:27.404Z,69.20
2018-03-22T01:11:53.688Z,69.30
2018-03-22T01:14:19.971Z,69.70
2018-03-22T01:16:47.000Z,70.00
2018-03-22T01:19:13.305Z,70.00
2018-03-22T01:21:39.648Z,70.00
2018-03-22T01:24:05.919Z,70.10
2018-03-22T01:26:33.416Z,70.10
2018-03-22T01:28:59.822Z,70.50
2018-03-22T01:31:26.272Z,70.60
2018-03-22T01:33:52.643Z,70.90
2018-03-22T01:36:18.907Z,70.40
2018-03-22T01:38:45.126Z,70.10
2018-03-22T01:41:11.379Z,69.70
2018-03-22T01:43:37.636Z,69.30
2018-03-22T01:46:03.920Z,69.10
2018-03-22T01:48:30.211Z,69.30
2018-03-22T01:50:56.487Z,69.50
2018-03-22T01:53:22.752Z,69.30
2018-03-22T01:55:49.091Z,69.70
2018-03-22T01:58:17.984Z,69.60
2018-03-22T02:00:46.433Z,69.60
2018-03-22T02:03:15.838Z,69.60
2018-03-22T02:05:43.785Z,68.80
2018-03-22T02:08:11.395Z,68.80
2018-03-22T02:10:38.571Z,68.70
2018-03-22T02:13:06.538Z,68.80
2018-03-22T02:15:32.966Z,68.70
2018-03-22T02:17:59.220Z,68.40
2018-03-22T02:20:25.511Z,68.50
2018-03-22T02:22:51.763Z,67.60
2018-03-22T02:25:18.014Z,66.90
2018-03-22T02:27:45.312Z,66.90
2018-03-22T02:30:11.533Z,67.00
2018-03-22T02:32:37.828Z,67.20
2018-03-22T02:35:04.487Z,67.00
2018-03-22T02:37:30.780Z,67.20
2018-03-22T02:39:57.078Z,67.40
2018-03-22T02:42:23.351Z,67.20
2018-03-22T02:44:49.651Z,67.30
2018-03-22T02:47:16.654Z,67.40
2018-03-22T02:49:42.919Z,67.40
2018-03-22T02:52:09.268Z,67.70
2018-03-22T02:54:36.248Z,67.00
2018-03-22T02:57:02.520Z,67.00
2018-03-22T02:59:28.775Z,67.40
2018-03-22T03:01:55.778Z,67.30
2018-03-22T03:04:22.037Z,67.20
2018-03-22T03:06:48.318Z,67.00
2018-03-22T03:09:14.556Z,67.10
2018-03-22T03:11:40.819Z,67.00
2018-03-22T03:14:07.068Z,67.40
2018-03-22T03:16:33.316Z,67.20
2018-03-22T03:18:59.576Z,67.30
2018-03-22T03:21:25.827Z,67.30
2018-03-22T03:23:52.102Z,67.10
2018-03-22T03:26:18.357Z,67.00
2018-03-22T03:28:45.562Z,66.90
2018-03-22T03:31:11.945Z,67.30
2018-03-22T03:33:38.224Z,67.50
2018-03-22T03:36:04.527Z,67.10
2018-03-22T03:38:30.821Z,67.40
2018-03-22T03:40:57.151Z,67.20
2018-03-22T03:43:23.423Z,66.90
2018-03-22T03:45:49.743Z,67.20
2018-03-22T03:48:16.807Z,67.00
2018-03-22T03:50:43.051Z,67.30
2018-03-22T03:53:09.323Z,67.00
2018-03-22T03:55:35.559Z,67.00
2018-03-22T03:58:01.823Z,67.00
2018-03-22T04:00:28.068Z,67.30
2018-03-22T04:02:54.435Z,67.50
2018-03-22T04:05:20.707Z,67.40
2018-03-22T04:07:46.941Z,67.80
2018-03-22T04:10:13.232Z,68.10
2018-03-22T04:12:39.471Z,68.10
2018-03-22T04:15:06.598Z,67.90
2018-03-22T04:17:38.980Z,67.80
2018-03-22T04:20:05.320Z,68.20
2018-03-22T04:22:31.580Z,68.30
2018-03-22T04:24:58.043Z,68.50
2018-03-22T04:27:24.283Z,68.50
2018-03-22T04:29:50.639Z,68.40
2018-03-22T04:32:16.907Z,68.50
2018-03-22T04:34:43.259Z,68.40
2018-03-22T04:37:09.515Z,68.50
2018-03-22T04:39:36.195Z,68.40
2018-03-22T04:42:02.459Z,68.60
2018-03-22T04:44:28.724Z,68.80
2018-03-22T04:46:54.963Z,68.60
2018-03-22T04:49:21.227Z,68.60
2018-03-22T04:51:47.471Z,68.50
2018-03-22T04:54:13.750Z,68.40
2018-03-22T04:56:40.014Z,68.60
2018-03-22T04:59:06.618Z,68.90
2018-03-22T05:01:32.875Z,68.70
2018-03-22T05:03:59.120Z,68.80
2018-03-22T05:06:25.360Z,68.90
2018-03-22T05:08:51.611Z,68.70
2018-03-22T05:11:17.899Z,68.90
2018-03-22T05:13:44.743Z,69.00
2018-03-22T05:16:11.030Z,68.70
2018-03-22T05:18:37.310Z,68.50
2018-03-22T05:21:03.566Z,68.90
2018-03-22T05:23:35.892Z,68.90
2018-03-22T05:26:02.920Z,68.70
2018-03-22T05:28:29.939Z,68.80
2018-03-22T05:30:56.190Z,68.80
2018-03-22T05:33:22.422Z,69.10
2018-03-22T05:35:48.802Z,69.50
2018-03-22T05:38:15.063Z,69.50
2018-03-22T05:40:41.355Z,69.10
2018-03-22T05:43:07.891Z,69.00
2018-03-22T05:45:34.192Z,69.20
2018-03-22T05:48:00.462Z,68.90
2018-03-22T05:50:26.708Z,69.00
2018-03-22T05:52:53.027Z,69.40
2018-03-22T05:55:19.275Z,69.90
2018-03-22T05:57:45.601Z,70.80
2018-03-22T06:00:11.867Z,71.10
2018-03-22T06:02:38.203Z,71.60
2018-03-22T06:05:07.075Z,72.00
2018-03-22T06:07:33.350Z,72.70
2018-03-22T06:09:59.604Z,73.10
2018-03-22T06:12:26.619Z,73.60
2018-03-22T06:14:52.895Z,73.60
2018-03-22T06:17:19.906Z,73.90
2018-03-22T06:19:46.194Z,74.70
2018-03-22T06:22:12.533Z,75.90
2018-03-22T06:24:38.783Z,76.90
2018-03-22T06:27:06.050Z,76.80
2018-03-22T06:29:32.289Z,76.90
2018-03-22T06:31:58.540Z,77.80
2018-03-22T06:34:25.552Z,79.40
2018-03-22T06:36:51.839Z,79.40
2018-03-22T06:39:18.101Z,80.40
2018-03-22T06:41:44.334Z,80.50
2018-03-22T06:44:10.603Z,80.70
2018-03-22T06:46:36.879Z,80.40
2018-03-22T06:49:03.371Z,81.10
2018-03-22T06:51:29.607Z,81.80
2018-03-22T06:53:55.892Z,82.50
2018-03-22T06:56:22.146Z,82.40
2018-03-22T06:58:48.421Z,83.00
2018-03-22T07:01:15.415Z,83.60
2018-03-22T07:03:41.787Z,83.50
2018-03-22T07:06:08.904Z,84.30
2018-03-22T07:08:35.168Z,84.30
2018-03-22T07:11:01.399Z,84.40
2018-03-22T07:13:27.803Z,84.10
2018-03-22T07:15:54.023Z,84.10
2018-03-22T07:18:20.415Z,83.60
2018-03-22T07:20:47.413Z,84.40
2018-03-22T07:23:13.743Z,84.40
2018-03-22T07:25:40.013Z,83.80
2018-03-22T07:28:06.303Z,84.20
2018-03-22T07:30:32.531Z,85.00
2018-03-22T07:32:58.798Z,84.50
2018-03-22T07:35:25.047Z,84.00
2018-03-22T07:37:51.310Z,84.70
2018-03-22T07:40:17.562Z,84.80
2018-03-22T07:42:43.906Z,83.90
2018-03-22T07:45:10.212Z,84.20
2018-03-22T07:47:36.756Z,85.50
2018-03-22T07:50:03.891Z,84.60
2018-03-22T07:52:30.158Z,84.60
2018-03-22T07:54:56.438Z,84.50
2018-03-22T07:57:23.432Z,84.50
2018-03-22T07:59:49.783Z,84.50
2018-03-22T08:02:16.034Z,84.10
2018-03-22T08:04:43.219Z,84.20
2018-03-22T08:07:09.487Z,84.60
2018-03-22T08:09:35.791Z,84.30
2018-03-22T08:12:02.067Z,84.10
2018-03-22T08:14:28.323Z,84.30
2018-03-22T08:16:55.315Z,85.50
2018-03-22T08:19:21.975Z,85.50
2018-03-22T08:21:49.094Z,85.70
2018-03-22T08:24:15.343Z,85.60
2018-03-22T08:26:41.787Z,86.00
2018-03-22T08:29:08.172Z,85.00
2018-03-22T08:31:34.447Z,84.60
2018-03-22T08:34:00.725Z,84.30
2018-03-22T08:36:27.934Z,84.80
2018-03-22T08:38:54.163Z,84.30
2018-03-22T08:41:20.936Z,83.70
2018-03-22T08:43:47.269Z,84.30
2018-03-22T08:46:13.557Z,83.70
2018-03-22T08:48:40.202Z,83.10
2018-03-22T08:51:06.443Z,83.60
2018-03-22T08:53:32.767Z,84.00
2018-03-22T08:55:59.043Z,82.90
2018-03-22T08:58:26.023Z,83.60
2018-03-22T09:00:52.293Z,83.60
2018-03-22T09:03:18.519Z,83.40
2018-03-22T09:05:44.771Z,84.10
2018-03-22T09:08:11.079Z,83.60
2018-03-22T09:10:37.291Z,83.10
2018-03-22T09:13:03.675Z,83.50
2018-03-22T09:15:29.907Z,84.40
2018-03-22T09:17:56.268Z,83.90
2018-03-22T09:20:22.524Z,83.50
2018-03-22T09:22:48.855Z,83.90
2018-03-22T09:25:15.122Z,83.00
2018-03-22T09:27:41.449Z,83.70
2018-03-22T09:30:07.688Z,82.90
2018-03-22T09:32:34.006Z,83.50
2018-03-22T09:35:00.252Z,82.90
2018-03-22T09:37:26.516Z,82.80
2018-03-22T09:39:52.801Z,83.20
2018-03-22T09:42:19.064Z,82.80
2018-03-22T09:44:45.328Z,83.60
2018-03-22T09:47:11.649Z,83.30
2018-03-22T09:49:38.832Z,82.30
2018-03-22T09:52:05.487Z,82.20
2018-03-22T09:54:31.740Z,83.00
2018-03-22T09:56:58.891Z,83.00
2018-03-22T09:59:25.107Z,82.90
2018-03-22T10:01:51.396Z,82.20
2018-03-22T10:04:17.674Z,83.00
2018-03-22T10:06:43.947Z,81.80
2018-03-22T10:09:10.216Z,81.80
2018-03-22T10:11:36.487Z,81.90
2018-03-22T10:14:02.787Z,82.20
2018-03-22T10:16:43.960Z,82.90
2018-03-22T10:19:10.261Z,82.10
2018-03-22T10:21:36.503Z,82.30
2018-03-22T10:24:02.776Z,82.40
2018-03-22T10:26:29.516Z,83.10
2018-03-22T10:28:56.751Z,85.50
2018-03-22T10:31:23.016Z,85.50
2018-03-22T10:33:49.276Z,84.80
2018-03-22T10:36:15.559Z,85.20
2018-03-22T10:38:41.834Z,85.50
2018-03-22T10:41:08.103Z,84.90
2018-03-22T10:43:34.400Z,85.20
2018-03-22T10:46:00.642Z,84.90
2018-03-22T10:48:26.946Z,84.50
2018-03-22T10:50:53.322Z,85.70
2018-03-22T10:53:19.603Z,85.40
2018-03-22T10:55:45.927Z,85.80
2018-03-22T10:58:12.562Z,84.30
2018-03-22T11:00:38.883Z,84.60
2018-03-22T11:03:11.216Z,85.80
2018-03-22T11:05:37.486Z,85.90
2018-03-22T11:08:03.752Z,85.10
2018-03-22T11:10:30.047Z,86.40
2018-03-22T11:12:56.336Z,85.80
2018-03-22T11:15:22.681Z,85.80
2018-03-22T11:17:48.943Z,86.40
2018-03-22T11:20:15.587Z,86.20
2018-03-22T11:22:41.860Z,86.70
2018-03-22T11:25:08.171Z,86.10
2018-03-22T11:27:34.424Z,86.00
2018-03-22T11:30:00.743Z,87.50
2018-03-22T11:32:26.979Z,87.20
2018-03-22T11:34:54.056Z,86.80
2018-03-22T11:37:20.304Z,86.80
2018-03-22T11:39:46.599Z,86.40
2018-03-22T11:42:12.906Z,86.00
2018-03-22T11:44:39.464Z,85.30
2018-03-22T11:47:05.752Z,85.70
2018-03-22T11:49:32.044Z,85.30
2018-03-22T11:51:58.323Z,84.80
2018-03-22T11:54:24.580Z,84.10
2018-03-22T11:56:50.843Z,85.50
2018-03-22T11:59:17.840Z,85.30
2018-03-22T12:01:44.139Z,85.30
2018-03-22T12:04:10.423Z,84.10
2018-03-22T12:06:36.720Z,85.20
2018-03-22T12:09:03.320Z,84.70
2018-03-22T12:11:29.640Z,84.90
2018-03-22T12:13:55.903Z,84.40
2018-03-22T12:16:22.980Z,83.90
2018-03-22T12:18:49.247Z,83.90
2018-03-22T12:21:16.303Z,84.20
2018-03-22T12:23:43.887Z,84.00
2018-03-22T12:26:10.175Z,84.40
2018-03-22T12:28:39.472Z,85.40
2018-03-22T12:31:05.755Z,84.70
2018-03-22T12:33:32.236Z,84.70
2018-03-22T12:35:58.557Z,84.90
2018-03-22T12:38:25.465Z,84.60
2018-03-22T12:40:51.715Z,84.80
2018-03-22T12:43:18.036Z,84.70
2018-03-22T12:45:44.276Z,84.80
2018-03-22T12:48:10.561Z,85.50
2018-03-22T12:50:36.801Z,85.60
2018-03-22T12:53:03.089Z,85.90
2018-03-22T12:55:29.372Z,86.00
2018-03-22T12:57:56.084Z,86.00
2018-03-22T13:00:22.350Z,85.60
2018-03-22T13:02:48.663Z,86.00
2018-03-22T13:05:15.392Z,86.20
2018-03-22T13:07:43.290Z,86.20
2018-03-22T13:10:09.628Z,86.10
2018-03-22T13:12:35.891Z,86.60
2018-03-22T13:15:02.188Z,86.70
2018-03-22T13:17:28.489Z,86.90
2018-03-22T13:19:55.041Z,86.70
2018-03-22T13:22:21.348Z,86.40
2018-03-22T13:24:47.911Z,86.20
2018-03-22T13:27:14.181Z,86.20
2018-03-22T13:29:40.906Z,86.70
2018-03-22T13:32:07.155Z,87.20
2018-03-22T13:34:33.575Z,87.30
2018-03-22T13:36:59.844Z,87.40
2018-03-22T13:39:26.418Z,87.90
2018-03-22T13:41:52.668Z,87.60
2018-03-22T13:44:19.173Z,87.90
2018-03-22T13:46:45.531Z,88.10
2018-03-22T13:49:11.829Z,88.50
2018-03-22T13:51:38.075Z,88.50
2018-03-22T13:54:04.699Z,88.70
2018-03-22T13:56:31.044Z,88.80
2018-03-22T13:58:57.320Z,88.80
2018-03-22T14:01:23.603Z,89.40
2018-03-22T14:03:50.410Z,89.90
2018-03-22T14:06:16.688Z,90.20
2018-03-22T14:08:42.972Z,90.20
2018-03-22T14:11:09.272Z,90.30
2018-03-22T14:13:35.568Z,90.40
2018-03-22T14:16:01.851Z,90.40
2018-03-22T14:18:28.443Z,90.40
2018-03-22T14:20:54.704Z,90.50
2018-03-22T14:23:21.027Z,90.30
2018-03-22T14:25:47.394Z,90.00
2018-03-22T14:28:13.635Z,88.50
2018-03-22T14:30:39.948Z,87.10
2018-03-22T14:33:06.225Z,83.60
2018-03-22T14:35:33.316Z,77.90
2018-03-22T14:37:59.603Z,79.40
2018-03-22T14:40:25.956Z,77.80
2018-03-22T14:42:52.191Z,77.40
2018-03-22T14:45:18.628Z,72.00
2018-03-22T14:47:45.627Z,74.70
2018-03-22T14:50:11.924Z,74.60
2018-03-22T14:52:38.920Z,80.00
2018-03-22T14:55:05.508Z,80.00
2018-03-22T14:57:31.764Z,81.30
2018-03-22T15:00:00.052Z,82.20
2018-03-22T15:02:27.924Z,83.80
2018-03-22T15:04:54.219Z,83.80
2018-03-22T15:07:20.572Z,83.50
2018-03-22T15:09:46.981Z,84.10
2018-03-22T15:12:13.273Z,84.20
2018-03-22T15:14:39.536Z,84.70
2018-03-22T15:17:06.620Z,84.50
2018-03-22T15:19:32.892Z,84.50
2018-03-22T15:21:59.288Z,83.20
2018-03-22T15:24:25.929Z,83.00
2018-03-22T15:26:52.212Z,83.40
2018-03-22T15:29:18.451Z,83.60
2018-03-22T15:31:45.487Z,83.70
2018-03-22T15:34:12.626Z,83.70
2018-03-22T15:36:38.912Z,84.30
2018-03-22T15:39:05.281Z,83.60
2018-03-22T15:41:31.560Z,84.00
2018-03-22T15:43:58.763Z,84.10
2018-03-22T15:46:25.072Z,84.10
2018-03-22T15:48:55.767Z,83.90
2018-03-22T15:51:22.116Z,84.30
2018-03-22T15:53:49.298Z,84.30
2018-03-22T15:56:15.767Z,84.70
2018-03-22T15:58:42.032Z,85.00
2018-03-22T16:01:08.296Z,85.20
2018-03-22T16:03:34.555Z,85.50
2018-03-22T16:06:00.892Z,85.50
2018-03-22T16:08:27.199Z,85.80
2018-03-22T16:10:53.672Z,86.10
2018-03-22T16:13:19.967Z,86.30
2018-03-22T16:15:46.245Z,86.70
2018-03-22T16:18:13.276Z,86.80
2018-03-22T16:20:40.082Z,86.70
2018-03-22T16:23:06.371Z,87.00
2018-03-22T16:25:33.512Z,87.20
2018-03-22T16:28:00.267Z,86.90
2018-03-22T16:30:26.552Z,87.10
2018-03-22T16:32:52.836Z,87.00
2018-03-22T16:35:19.839Z,86.70
2018-03-22T16:37:46.202Z,86.60
2018-03-22T16:40:12.455Z,87.00
2018-03-22T16:42:40.608Z,87.20
2018-03-22T16:45:06.979Z,87.20
2018-03-22T16:47:33.283Z,87.20
2018-03-22T16:49:59.600Z,87.20
2018-03-22T16:52:25.998Z,86.90
2018-03-22T16:54:52.404Z,87.10
2018-03-22T16:57:19.488Z,87.70
2018-03-22T16:59:45.786Z,87.80
2018-03-22T17:02:12.720Z,88.10
2018-03-22T17:04:39.067Z,88.30
2018-03-22T17:07:05.440Z,88.80
2018-03-22T17:09:31.721Z,89.00
2018-03-22T17:11:57.984Z,89.30
2018-03-22T17:14:24.604Z,89.50
2018-03-22T17:16:50.963Z,89.80
2018-03-22T17:19:17.300Z,90.10
2018-03-22T17:21:43.691Z,90.10
2018-03-22T17:24:10.040Z,90.00
2018-03-22T17:26:37.015Z,89.80
2018-03-22T17:29:03.381Z,89.60
2018-03-22T17:31:29.651Z,89.80
2018-03-22T17:33:55.932Z,90.00
2018-03-22T17:36:22.328Z,89.50
2018-03-22T17:38:48.615Z,90.00
2018-03-22T17:41:14.917Z,90.10
2018-03-22T17:43:41.215Z,90.20
2018-03-22T17:46:07.758Z,90.40
2018-03-22T17:48:34.073Z,90.40
2018-03-22T17:51:00.736Z,90.40
2018-03-22T17:53:27.028Z,90.40
2018-03-22T17:55:53.282Z,90.40
2018-03-22T17:58:19.716Z,90.30
2018-03-22T18:00:46.015Z,90.30
2018-03-22T18:03:12.351Z,90.30
2018-03-22T18:05:38.619Z,90.20
2018-03-22T18:08:04.876Z,90.30
2018-03-22T18:10:31.193Z,90.30
2018-03-22T18:12:57.524Z,90.30
2018-03-22T18:15:23.797Z,90.30
2018-03-22T18:17:50.124Z,90.30
2018-03-22T18:20:17.148Z,90.30
2018-03-22T18:22:45.060Z,90.30
2018-03-22T18:25:11.372Z,90.40
2018-03-22T18:27:37.667Z,90.40
2018-03-22T18:30:04.083Z,90.40
2018-03-22T18:32:30.337Z,90.40
2018-03-22T18:34:56.983Z,90.30
2018-03-22T18:37:23.224Z,90.30
2018-03-22T18:39:49.494Z,90.30
2018-03-22T18:42:15.751Z,90.30
2018-03-22T18:44:42.032Z,90.30
2018-03-22T18:47:08.420Z,90.20
2018-03-22T18:49:35.000Z,90.20
2018-03-22T18:52:01.295Z,90.20
2018-03-22T18:54:27.616Z,90.10
2018-03-22T18:56:54.640Z,90.20
2018-03-22T18:59:20.928Z,90.40
2018-03-22T19:01:47.236Z,90.20
2018-03-22T19:04:13.555Z,90.20
2018-03-22T19:06:39.887Z,90.20
2018-03-22T19:09:06.151Z,90.20
2018-03-22T19:11:39.215Z,90.10
2018-03-22T19:14:05.546Z,90.00
2018-03-22T19:16:32.483Z,90.00
2018-03-22T19:18:58.736Z,90.00
2018-03-22T19:21:26.001Z,89.90
2018-03-22T19:23:52.271Z,89.90
2018-03-22T19:26:18.579Z,89.90
2018-03-22T19:28:44.931Z,89.80
2018-03-22T19:31:12.411Z,89.70
2018-03-22T19:33:38.724Z,89.70
2018-03-22T19:36:05.091Z,89.70
2018-03-22T19:38:31.371Z,89.60
2018-03-22T19:40:57.660Z,89.60
2018-03-22T19:43:23.936Z,89.40
2018-03-22T19:45:50.222Z,89.40
2018-03-22T19:48:17.026Z,89.50
2018-03-22T19:50:43.358Z,89.40
2018-03-22T19:53:09.696Z,89.30
2018-03-22T19:55:35.984Z,89.50
2018-03-22T19:58:02.279Z,89.10
2018-03-22T20:00:28.860Z,89.10
2018-03-22T20:02:55.191Z,89.20
2018-03-22T20:05:21.446Z,89.30
2018-03-22T20:07:47.774Z,89.50
2018-03-22T20:10:14.064Z,89.60
2018-03-22T20:12:42.672Z,89.60
2018-03-22T20:15:09.059Z,89.50
2018-03-22T20:17:35.436Z,89.50
2018-03-22T20:20:01.811Z,89.50
2018-03-22T20:22:28.122Z,89.20
2018-03-22T20:24:54.452Z,89.40
2018-03-22T20:27:20.808Z,89.30
2018-03-22T20:29:47.090Z,89.30
2018-03-22T20:32:13.336Z,89.10
2018-03-22T20:34:39.639Z,89.30
2018-03-22T20:37:06.615Z,88.90
2018-03-22T20:39:32.951Z,88.90
2018-03-22T20:41:59.229Z,89.00
2018-03-22T20:44:25.612Z,89.00
2018-03-22T20:46:51.859Z,89.00
2018-03-22T20:49:18.131Z,88.90
2018-03-22T20:51:44.396Z,88.40
2018-03-22T20:54:10.833Z,88.50
2018-03-22T20:56:37.119Z,88.60
2018-03-22T20:59:03.488Z,88.20
2018-03-22T21:01:29.762Z,88.30
2018-03-22T21:03:56.085Z,88.70
2018-03-22T21:06:22.304Z,88.80
2018-03-22T21:08:48.632Z,88.90
2018-03-22T21:11:14.931Z,89.20
2018-03-22T21:13:41.208Z,89.10
2018-03-22T21:16:07.468Z,89.40
2018-03-22T21:18:33.748Z,89.70
2018-03-22T21:21:00.116Z,90.00
2018-03-22T21:23:26.368Z,90.10
2018-03-22T21:25:52.718Z,90.10
2018-03-22T21:28:19.832Z,90.10
2018-03-22T21:30:46.203Z,90.10
2018-03-22T21:33:12.448Z,90.00
2018-03-22T21:35:38.755Z,89.90
2018-03-22T21:38:05.067Z,90.00
2018-03-22T21:40:31.567Z,90.00
2018-03-22T21:42:57.830Z,90.00
2018-03-22T21:45:24.112Z,89.80
2018-03-22T21:47:51.168Z,89.20
2018-03-22T21:50:17.463Z,89.20
2018-03-22T21:52:44.764Z,89.60
2018-03-22T21:55:11.103Z,89.70
2018-03-22T21:57:37.357Z,89.60
2018-03-22T22:00:03.663Z,89.30
2018-03-22T22:02:29.928Z,89.30
2018-03-22T22:04:56.274Z,89.30
2018-03-22T22:07:23.404Z,88.70
2018-03-22T22:09:49.729Z,88.70
2018-03-22T22:12:16.088Z,88.60
2018-03-22T22:14:42.404Z,88.50
2018-03-22T22:17:08.700Z,88.70
2018-03-22T22:19:34.997Z,89.00
2018-03-22T22:22:01.385Z,89.10
2018-03-22T22:24:27.727Z,88.50
2018-03-22T22:26:54.052Z,88.60
2018-03-22T22:29:20.336Z,88.60
2018-03-22T22:31:46.627Z,88.70
2018-03-22T22:34:12.944Z,88.80
2018-03-22T22:36:39.259Z,88.80
2018-03-22T22:39:05.576Z,88.70
2018-03-22T22:41:31.881Z,88.70
2018-03-22T22:43:58.143Z,88.40
2018-03-22T22:46:25.164Z,88.70
2018-03-22T22:48:52.092Z,88.70
2018-03-22T22:51:18.366Z,88.60
2018-03-22T22:53:44.688Z,88.50
2018-03-22T22:56:10.955Z,88.60
2018-03-22T22:58:37.289Z,88.60
2018-03-22T23:01:03.572Z,88.80
2018-03-22T23:03:30.023Z,88.80
2018-03-22T23:05:56.288Z,88.80
2018-03-22T23:08:22.559Z,89.00
2018-03-22T23:10:49.215Z,89.20
2018-03-22T23:13:15.506Z,89.30
2018-03-22T23:15:41.787Z,89.20
2018-03-22T23:18:09.123Z,89.20
2018-03-22T23:20:35.368Z,89.20
2018-03-22T23:23:01.926Z,89.10
2018-03-22T23:25:28.211Z,90.00
2018-03-22T23:27:54.504Z,89.20
2018-03-22T23:30:21.183Z,89.00
2018-03-22T23:32:47.457Z,89.00
2018-03-22T23:35:14.723Z,88.90
2018-03-22T23:37:41.755Z,88.90
2018-03-22T23:40:08.040Z,88.90
2018-03-22T23:42:34.301Z,88.80
2018-03-22T23:45:03.403Z,89.00
2018-03-22T23:47:30.452Z,88.70
2018-03-22T23:49:56.723Z,88.70
2018-03-22T23:52:22.978Z,89.00
2018-03-22T23:54:50.303Z,88.80
2018-03-22T23:57:16.552Z,89.00
2018-03-22T23:59:43.723Z,89.00
